Time;durP1;ratioP1;P1;durP2;ratioP2;P2;SDS_P1;SDS_P2;PMS_P1;PMS_P2;Temp;Humidity;BMP_temperature;BMP_pressure;BME280_temperature;BME280_humidity;BME280_pressure;Samples;Min_cycle;Max_cycle;Signal;HPM_P1;HPM_P2
2021/08/17 00:00:28;;;;;;;5.73;3.93;;;12.60;99.90;;;;;;5083632;28;20617;-78
2021/08/17 00:02:56;;;;;;;6.10;3.67;;;12.50;99.90;;;;;;5089260;28;21020;-78
2021/08/17 00:05:24;;;;;;;5.93;3.60;;;12.50;99.90;;;;;;5099708;28;20656;-77
2021/08/17 00:07:51;;;;;;;8.73;4.53;;;12.50;99.90;;;;;;5084186;28;20685;-77
2021/08/17 00:10:19;;;;;;;3.80;3.30;;;12.40;99.90;;;;;;5081607;28;20609;-77
2021/08/17 00:12:46;;;;;;;4.60;3.13;;;12.40;99.90;;;;;;5084732;28;20620;-78
2021/08/17 00:15:13;;;;;;;5.57;3.97;;;12.40;99.90;;;;;;5074463;28;20637;-78
2021/08/17 00:17:40;;;;;;;5.83;4.20;;;12.20;99.90;;;;;;5073414;28;20675;-78
2021/08/17 00:20:09;;;;;;;5.83;4.57;;;12.20;99.90;;;;;;5083456;28;20616;-78
2021/08/17 00:22:37;;;;;;;6.43;4.60;;;12.20;99.90;;;;;;5093248;28;20607;-77
2021/08/17 00:25:05;;;;;;;5.70;3.30;;;12.20;99.90;;;;;;5089826;28;20640;-78
2021/08/17 00:27:33;;;;;;;5.83;4.30;;;12.20;99.90;;;;;;5093497;28;20600;-78
2021/08/17 00:30:00;;;;;;;5.77;4.60;;;12.20;99.90;;;;;;5088686;28;20622;-78
2021/08/17 00:32:27;;;;;;;6.90;4.47;;;12.10;99.90;;;;;;5072652;28;21080;-78
2021/08/17 00:34:56;;;;;;;5.17;4.50;;;12.10;99.90;;;;;;5091375;28;20620;-78
2021/08/17 00:37:23;;;;;;;5.40;3.97;;;12.10;99.90;;;;;;5073529;28;20632;-78
2021/08/17 00:39:49;;;;;;;7.70;5.07;;;12.10;99.90;;;;;;5089858;28;20656;-77
2021/08/17 00:42:16;;;;;;;9.20;4.17;;;12.20;99.90;;;;;;5086808;28;20622;-77
2021/08/17 00:44:45;;;;;;;6.63;4.93;;;12.20;99.90;;;;;;5072891;28;20701;-78
2021/08/17 00:47:13;;;;;;;7.03;4.00;;;12.10;99.90;;;;;;5077061;28;20611;-77
2021/08/17 00:49:40;;;;;;;4.60;3.90;;;12.20;99.90;;;;;;5093000;28;20613;-77
2021/08/17 00:52:07;;;;;;;5.10;4.60;;;12.20;99.90;;;;;;5089625;28;20626;-77
2021/08/17 00:54:35;;;;;;;5.90;4.00;;;12.40;99.90;;;;;;5084836;28;20724;-77
2021/08/17 00:57:03;;;;;;;4.80;4.30;;;12.30;99.90;;;;;;5081780;28;20667;-78
2021/08/17 00:59:31;;;;;;;5.57;3.80;;;12.20;99.90;;;;;;5073792;28;21019;-78
2021/08/17 01:01:59;;;;;;;7.53;4.43;;;12.20;99.90;;;;;;5079880;28;20628;-78
2021/08/17 01:04:27;;;;;;;5.00;4.20;;;12.30;99.90;;;;;;5092003;28;20727;-77
2021/08/17 01:06:55;;;;;;;6.90;4.80;;;12.30;99.90;;;;;;5091637;28;21287;-77
2021/08/17 01:09:22;;;;;;;6.03;3.63;;;12.20;99.90;;;;;;5092931;28;20723;-77
2021/08/17 01:11:51;;;;;;;4.87;4.03;;;12.20;99.90;;;;;;5090669;28;20611;-77
2021/08/17 01:14:24;;;;;;;5.83;3.90;;;12.10;99.90;;;;;;5079936;28;20628;-77
2021/08/17 01:16:52;;;;;;;6.33;5.03;;;12.00;99.90;;;;;;5074781;28;21068;-77
2021/08/17 01:19:22;;;;;;;5.03;4.17;;;11.90;99.90;;;;;;5087061;28;20668;-77
2021/08/17 01:21:51;;;;;;;7.13;4.07;;;11.90;99.90;;;;;;5092449;28;20644;-77
2021/08/17 01:24:22;;;;;;;5.00;4.43;;;11.90;99.90;;;;;;5084706;28;20621;-77
2021/08/17 01:26:51;;;;;;;3.60;3.30;;;11.80;99.90;;;;;;5071752;28;20740;-77
2021/08/17 01:29:20;;;;;;;6.00;4.37;;;11.70;99.90;;;;;;5092671;28;20612;-77
2021/08/17 01:31:49;;;;;;;4.77;3.50;;;11.70;99.90;;;;;;5088142;28;20635;-77
2021/08/17 01:34:16;;;;;;;5.90;4.43;;;11.60;99.90;;;;;;5077749;28;20617;-77
2021/08/17 01:36:44;;;;;;;5.63;4.17;;;11.60;99.90;;;;;;5089604;28;20616;-77
2021/08/17 01:39:12;;;;;;;5.17;4.10;;;11.60;99.90;;;;;;5072855;28;20622;-77
2021/08/17 01:41:40;;;;;;;7.77;4.40;;;11.50;99.90;;;;;;5071911;28;20660;-77
2021/08/17 01:44:09;;;;;;;6.47;4.50;;;11.40;99.90;;;;;;5086682;28;21174;-77
2021/08/17 01:46:37;;;;;;;6.20;4.17;;;11.40;99.90;;;;;;5073053;28;20684;-77
2021/08/17 01:49:05;;;;;;;6.10;4.70;;;11.40;99.90;;;;;;5071990;28;20629;-77
2021/08/17 01:51:34;;;;;;;5.40;4.33;;;11.30;99.90;;;;;;5072458;28;20630;-77
2021/08/17 01:54:03;;;;;;;6.03;3.73;;;11.20;99.90;;;;;;5075102;28;20632;-77
2021/08/17 01:56:34;;;;;;;4.40;4.00;;;11.30;99.90;;;;;;5091475;28;21346;-77
2021/08/17 01:59:05;;;;;;;7.97;4.47;;;11.20;99.90;;;;;;5091759;28;20612;-77
2021/08/17 02:01:34;;;;;;;5.27;3.57;;;11.20;99.90;;;;;;5089340;28;20673;-77
2021/08/17 02:04:02;;;;;;;6.60;4.03;;;11.10;99.90;;;;;;5078821;28;20724;-77
2021/08/17 02:06:29;;;;;;;6.47;3.93;;;11.00;99.90;;;;;;5080889;28;21229;-77
2021/08/17 02:08:57;;;;;;;6.47;4.30;;;11.10;99.90;;;;;;5074775;28;20769;-77
2021/08/17 02:11:25;;;;;;;7.63;4.80;;;11.10;99.90;;;;;;5076942;28;20675;-77
2021/08/17 02:13:54;;;;;;;7.07;5.17;;;11.10;99.90;;;;;;5081767;28;20641;-77
2021/08/17 02:16:23;;;;;;;4.57;3.80;;;11.00;99.90;;;;;;5080603;28;20633;-77
2021/08/17 02:18:52;;;;;;;5.50;4.20;;;11.00;99.90;;;;;;5087803;28;20636;-77
2021/08/17 02:21:21;;;;;;;8.90;4.50;;;11.00;99.90;;;;;;5081128;28;20639;-77
2021/08/17 02:23:49;;;;;;;5.50;3.90;;;11.00;99.90;;;;;;5085684;28;20624;-77
2021/08/17 02:26:17;;;;;;;6.10;3.77;;;10.90;99.90;;;;;;5091453;28;21040;-77
2021/08/17 02:28:44;;;;;;;6.10;4.00;;;10.90;99.90;;;;;;5089263;28;21182;-77
2021/08/17 02:31:12;;;;;;;7.67;4.83;;;11.00;99.90;;;;;;5079122;28;20621;-77
2021/08/17 02:33:40;;;;;;;7.67;4.10;;;11.00;99.90;;;;;;5070637;28;21038;-77
2021/08/17 02:36:11;;;;;;;6.73;3.77;;;11.10;99.90;;;;;;5079949;28;20625;-77
2021/08/17 02:38:39;;;;;;;5.87;4.33;;;11.00;99.90;;;;;;5087311;28;21264;-77
2021/08/17 02:41:06;;;;;;;6.70;3.97;;;11.00;99.90;;;;;;5082583;28;20672;-77
2021/08/17 02:43:35;;;;;;;5.53;3.50;;;10.90;99.90;;;;;;5070697;28;20622;-77
2021/08/17 02:46:03;;;;;;;6.43;4.07;;;10.90;99.90;;;;;;5075950;28;20658;-77
2021/08/17 02:48:32;;;;;;;6.30;4.20;;;10.80;99.90;;;;;;5090418;28;21180;-77
2021/08/17 02:51:01;;;;;;;5.50;4.53;;;10.70;99.90;;;;;;5073707;28;20651;-77
2021/08/17 02:53:35;;;;;;;4.97;3.40;;;10.70;99.90;;;;;;5071447;28;20632;-77
2021/08/17 02:56:06;;;;;;;8.73;5.00;;;10.60;99.90;;;;;;5087885;28;20644;-77
2021/08/17 02:58:34;;;;;;;5.53;4.37;;;10.60;99.90;;;;;;5089314;28;20690;-77
2021/08/17 03:01:03;;;;;;;5.73;4.50;;;10.60;99.90;;;;;;5082564;28;20629;-77
2021/08/17 03:03:30;;;;;;;6.67;4.40;;;10.60;99.90;;;;;;5071282;28;20639;-77
2021/08/17 03:05:58;;;;;;;7.77;4.50;;;10.60;99.90;;;;;;5088949;28;20659;-77
2021/08/17 03:08:26;;;;;;;5.23;3.80;;;10.70;99.90;;;;;;5093749;28;20717;-77
2021/08/17 03:10:55;;;;;;;5.30;4.07;;;10.60;99.90;;;;;;5072284;28;21330;-77
2021/08/17 03:13:22;;;;;;;9.20;3.60;;;10.60;99.90;;;;;;5090301;28;21356;-77
2021/08/17 03:15:49;;;;;;;5.33;4.00;;;10.60;99.90;;;;;;5071818;28;20613;-77
2021/08/17 03:18:16;;;;;;;9.30;4.03;;;10.60;99.90;;;;;;5069290;28;20637;-77
2021/08/17 03:20:43;;;;;;;7.00;3.70;;;10.60;99.90;;;;;;5086831;28;20983;-77
2021/08/17 03:23:14;;;;;;;5.47;3.80;;;10.50;99.90;;;;;;5087871;28;20969;-77
2021/08/17 03:25:41;;;;;;;5.83;4.07;;;10.50;99.90;;;;;;5089841;28;20646;-80
2021/08/17 03:28:10;;;;;;;7.40;4.43;;;10.50;99.90;;;;;;5084153;28;20656;-77
2021/08/17 03:30:37;;;;;;;5.50;4.10;;;10.50;99.90;;;;;;5090282;28;20662;-77
2021/08/17 03:33:04;;;;;;;6.67;4.53;;;10.50;99.90;;;;;;5083474;28;20614;-77
2021/08/17 03:35:31;;;;;;;5.40;4.20;;;10.60;99.90;;;;;;5073005;28;21023;-77
2021/08/17 03:37:58;;;;;;;6.10;4.43;;;10.60;99.90;;;;;;5087992;28;21209;-77
2021/08/17 03:40:26;;;;;;;5.60;3.67;;;10.70;99.90;;;;;;5089817;28;21052;-77
2021/08/17 03:42:53;;;;;;;5.33;4.03;;;10.70;99.90;;;;;;5087879;28;20613;-77
2021/08/17 03:45:23;;;;;;;4.83;3.90;;;10.60;99.90;;;;;;5070347;28;20976;-77
2021/08/17 03:47:51;;;;;;;6.20;3.30;;;10.70;99.90;;;;;;5069911;28;20679;-77
2021/08/17 03:50:19;;;;;;;6.50;4.67;;;10.60;99.90;;;;;;5088770;28;21219;-77
2021/08/17 03:52:46;;;;;;;5.80;4.07;;;10.60;99.90;;;;;;5086899;28;20625;-77
2021/08/17 03:55:14;;;;;;;5.13;4.30;;;10.60;99.90;;;;;;5089169;28;20627;-77
2021/08/17 03:57:41;;;;;;;5.43;3.77;;;10.60;99.90;;;;;;5077709;28;20613;-77
2021/08/17 04:00:11;;;;;;;4.43;3.60;;;10.50;99.90;;;;;;5072397;28;20942;-76
2021/08/17 04:02:41;;;;;;;4.13;3.73;;;10.50;99.90;;;;;;5069322;28;20632;-77
2021/08/17 04:05:09;;;;;;;6.90;4.63;;;10.50;99.90;;;;;;5084630;28;20629;-77
2021/08/17 04:07:36;;;;;;;8.73;3.90;;;10.50;99.90;;;;;;5075971;28;21237;-77
2021/08/17 04:10:04;;;;;;;5.07;4.03;;;10.60;99.90;;;;;;5086966;28;20631;-77
2021/08/17 04:12:31;;;;;;;6.63;4.50;;;10.40;99.90;;;;;;5076390;28;20661;-77
2021/08/17 04:14:58;;;;;;;13.03;5.50;;;10.50;99.90;;;;;;5070807;28;21008;-77
2021/08/17 04:17:25;;;;;;;4.83;4.13;;;10.50;99.90;;;;;;5080456;28;20624;-77
2021/08/17 04:19:54;;;;;;;5.87;4.07;;;10.40;99.90;;;;;;5072802;28;21247;-77
2021/08/17 04:22:21;;;;;;;5.87;4.03;;;10.40;99.90;;;;;;5075818;28;20667;-77
2021/08/17 04:24:48;;;;;;;5.70;4.43;;;10.30;99.90;;;;;;5087644;28;20628;-77
2021/08/17 04:27:15;;;;;;;7.20;3.70;;;10.40;99.90;;;;;;5089009;28;20655;-76
2021/08/17 04:29:43;;;;;;;5.30;4.27;;;10.40;99.90;;;;;;5067911;28;20702;-77
2021/08/17 04:32:11;;;;;;;7.43;3.90;;;10.40;99.90;;;;;;5069756;28;20618;-77
2021/08/17 04:34:38;;;;;;;6.53;4.93;;;10.30;99.90;;;;;;5080792;28;20670;-77
2021/08/17 04:37:06;;;;;;;5.33;4.33;;;10.20;99.90;;;;;;5073389;28;20649;-76
2021/08/17 04:39:33;;;;;;;4.90;3.87;;;10.10;99.90;;;;;;5088184;28;20632;-76
2021/08/17 04:42:00;;;;;;;6.87;5.60;;;10.10;99.90;;;;;;5074749;28;20653;-77
2021/08/17 04:44:27;;;;;;;9.70;4.47;;;10.20;99.90;;;;;;5069923;28;20618;-77
2021/08/17 04:46:54;;;;;;;6.50;4.80;;;10.20;99.90;;;;;;5089863;28;20727;-77
2021/08/17 04:49:21;;;;;;;7.87;5.47;;;10.20;99.90;;;;;;5093140;28;20703;-77
2021/08/17 04:51:48;;;;;;;6.73;4.80;;;10.10;99.90;;;;;;5090999;28;20663;-77
2021/08/17 04:54:16;;;;;;;5.40;4.27;;;10.20;99.90;;;;;;5093453;28;20647;-77
2021/08/17 04:56:43;;;;;;;6.23;4.40;;;10.20;99.90;;;;;;5081344;28;21242;-77
2021/08/17 04:59:10;;;;;;;7.27;5.30;;;10.20;99.90;;;;;;5072704;28;20728;-77
2021/08/17 05:01:37;;;;;;;5.37;4.43;;;10.20;99.90;;;;;;5073865;28;20748;-77
2021/08/17 05:04:04;;;;;;;5.87;4.57;;;10.40;99.90;;;;;;5090039;28;20678;-77
2021/08/17 05:06:31;;;;;;;8.10;5.57;;;10.40;99.90;;;;;;5091681;28;20635;-77
2021/08/17 05:08:58;;;;;;;6.37;4.37;;;10.40;99.90;;;;;;5092967;28;21032;-77
2021/08/17 05:11:26;;;;;;;10.67;6.00;;;10.40;99.90;;;;;;5083324;28;21190;-76
2021/08/17 05:13:53;;;;;;;6.00;4.70;;;10.50;99.90;;;;;;5071822;28;20663;-77
2021/08/17 05:16:20;;;;;;;6.17;5.23;;;10.60;99.90;;;;;;5085571;28;20720;-77
2021/08/17 05:18:47;;;;;;;6.13;4.27;;;10.60;99.90;;;;;;5092737;28;20628;-76
2021/08/17 05:21:14;;;;;;;6.53;5.20;;;10.50;99.90;;;;;;5087021;28;20624;-77
2021/08/17 05:23:40;;;;;;;5.93;5.33;;;10.60;99.90;;;;;;5083272;28;20948;-77
2021/08/17 05:26:08;;;;;;;5.23;4.27;;;10.70;99.90;;;;;;5083891;28;21185;-77
2021/08/17 05:28:36;;;;;;;8.23;4.77;;;10.80;99.90;;;;;;5092510;28;20620;-77
2021/08/17 05:31:03;;;;;;;8.03;5.23;;;10.70;99.90;;;;;;5081228;28;20683;-77
2021/08/17 05:33:30;;;;;;;6.40;4.97;;;10.80;99.90;;;;;;5066304;28;21077;-77
2021/08/17 05:35:57;;;;;;;7.60;4.90;;;10.90;99.90;;;;;;5089935;28;20604;-77
2021/08/17 05:38:23;;;;;;;7.87;5.17;;;11.00;99.90;;;;;;5090383;28;21317;-77
2021/08/17 05:40:50;;;;;;;6.40;4.30;;;11.10;99.90;;;;;;5079388;28;21304;-77
2021/08/17 05:43:17;;;;;;;6.70;4.97;;;11.10;99.90;;;;;;5089207;28;20629;-77
2021/08/17 05:45:45;;;;;;;5.33;4.50;;;11.10;99.90;;;;;;5089197;28;21205;-77
2021/08/17 05:48:12;;;;;;;5.60;4.10;;;11.10;99.90;;;;;;5081514;28;20628;-77
2021/08/17 05:50:39;;;;;;;4.97;4.00;;;11.20;99.90;;;;;;5079049;28;20625;-77
2021/08/17 05:53:06;;;;;;;5.27;4.40;;;11.20;99.90;;;;;;5070656;28;21028;-77
2021/08/17 05:55:33;;;;;;;5.90;4.73;;;11.30;99.90;;;;;;5089032;28;20674;-77
2021/08/17 05:58:03;;;;;;;8.50;4.40;;;11.40;99.90;;;;;;5089772;28;20764;-77
2021/08/17 06:00:30;;;;;;;5.97;4.53;;;11.60;99.90;;;;;;5076441;28;21182;-77
2021/08/17 06:02:58;;;;;;;5.93;4.50;;;11.70;99.90;;;;;;5091032;28;20670;-77
2021/08/17 06:05:26;;;;;;;7.30;5.43;;;11.70;99.90;;;;;;5073010;28;20666;-76
2021/08/17 06:07:53;;;;;;;9.33;4.87;;;11.80;99.90;;;;;;5082471;28;20723;-77
2021/08/17 06:10:20;;;;;;;6.40;5.20;;;11.80;99.90;;;;;;5084290;28;21182;-76
2021/08/17 06:12:47;;;;;;;5.27;4.40;;;11.80;99.90;;;;;;5089790;28;20681;-77
2021/08/17 06:15:16;;;;;;;6.50;5.10;;;11.90;99.90;;;;;;5091749;28;21019;-77
2021/08/17 06:17:43;;;;;;;8.73;4.77;;;12.00;99.90;;;;;;5086497;28;20661;-77
2021/08/17 06:20:12;;;;;;;5.50;4.10;;;12.10;99.90;;;;;;5072769;28;20664;-77
2021/08/17 06:22:39;;;;;;;8.80;4.97;;;12.10;99.90;;;;;;5080472;28;20612;-77
2021/08/17 06:25:08;;;;;;;6.97;4.87;;;12.20;99.90;;;;;;5079445;28;20606;-77
2021/08/17 06:27:36;;;;;;;6.10;4.10;;;12.20;99.90;;;;;;5075768;28;20751;-77
2021/08/17 06:30:05;;;;;;;5.50;4.80;;;12.20;99.90;;;;;;5090932;28;20620;-77
2021/08/17 06:32:32;;;;;;;6.33;4.37;;;12.40;99.90;;;;;;5089567;28;20635;-76
2021/08/17 06:34:59;;;;;;;5.50;4.60;;;12.50;99.90;;;;;;5085895;28;20630;-77
2021/08/17 06:37:27;;;;;;;5.27;4.77;;;12.50;99.90;;;;;;5069416;28;20701;-77
2021/08/17 06:39:54;;;;;;;4.90;3.90;;;12.40;99.90;;;;;;5072135;28;20650;-77
2021/08/17 06:42:21;;;;;;;6.77;5.30;;;12.40;99.90;;;;;;5074026;28;20617;-77
2021/08/17 06:44:48;;;;;;;6.73;4.70;;;12.40;99.90;;;;;;5080715;28;20634;-76
2021/08/17 06:47:14;;;;;;;9.80;5.17;;;12.20;99.90;;;;;;5076820;28;20731;-76
2021/08/17 06:49:41;;;;;;;5.10;4.37;;;12.30;99.90;;;;;;5077058;28;20702;-77
2021/08/17 06:52:09;;;;;;;6.33;4.90;;;12.30;99.90;;;;;;5079116;28;21223;-77
2021/08/17 06:54:37;;;;;;;9.03;6.17;;;12.40;99.90;;;;;;5078042;28;20661;-77
2021/08/17 06:57:04;;;;;;;8.13;5.27;;;12.60;99.90;;;;;;5078696;28;20660;-77
2021/08/17 06:59:31;;;;;;;8.77;5.80;;;12.60;99.90;;;;;;5082178;28;20633;-77
2021/08/17 07:01:58;;;;;;;7.03;5.27;;;12.70;99.90;;;;;;5072814;28;20654;-77
2021/08/17 07:04:27;;;;;;;8.23;4.70;;;12.80;99.90;;;;;;5071558;28;20625;-78
2021/08/17 07:06:54;;;;;;;5.13;4.50;;;12.90;99.90;;;;;;5077410;28;20620;-78
2021/08/17 07:09:21;;;;;;;7.00;4.50;;;12.90;99.90;;;;;;5083851;28;20676;-78
2021/08/17 07:11:49;;;;;;;7.77;5.00;;;13.10;99.90;;;;;;5075951;28;20618;-78
2021/08/17 07:14:16;;;;;;;7.60;5.50;;;13.20;99.90;;;;;;5072425;28;20613;-78
2021/08/17 07:16:43;;;;;;;7.50;5.50;;;13.30;99.90;;;;;;5080718;28;20616;-77
2021/08/17 07:19:10;;;;;;;8.00;4.80;;;13.20;99.90;;;;;;5086169;28;20658;-78
2021/08/17 07:21:37;;;;;;;5.80;4.50;;;13.40;99.90;;;;;;5086999;28;20621;-78
2021/08/17 07:24:05;;;;;;;9.90;5.83;;;13.40;99.90;;;;;;5087271;28;20669;-78
2021/08/17 07:26:32;;;;;;;9.07;6.00;;;13.30;99.90;;;;;;5090158;28;20669;-78
2021/08/17 07:29:00;;;;;;;9.60;5.73;;;13.50;99.90;;;;;;5090049;28;20981;-78
2021/08/17 07:31:27;;;;;;;6.63;5.63;;;13.70;99.90;;;;;;5089007;28;20629;-78
2021/08/17 07:33:54;;;;;;;6.50;5.10;;;13.70;99.90;;;;;;5089773;28;20619;-78
2021/08/17 07:36:23;;;;;;;6.80;5.27;;;13.60;99.90;;;;;;5085619;28;20609;-77
2021/08/17 07:38:50;;;;;;;7.37;5.40;;;13.50;99.60;;;;;;5070133;28;20661;-77
2021/08/17 07:41:18;;;;;;;7.43;5.00;;;13.50;99.10;;;;;;5069587;28;20641;-78
2021/08/17 07:43:45;;;;;;;6.40;4.80;;;13.80;99.90;;;;;;5079150;28;20631;-78
2021/08/17 07:46:14;;;;;;;8.80;6.00;;;14.00;99.50;;;;;;5088835;28;20635;-78
2021/08/17 07:48:42;;;;;;;7.60;5.07;;;14.20;99.90;;;;;;5084083;28;20631;-78
2021/08/17 07:51:10;;;;;;;5.70;4.90;;;14.30;99.10;;;;;;5088484;28;20656;-78
2021/08/17 07:53:37;;;;;;;5.83;5.23;;;14.40;98.70;;;;;;5082215;28;20682;-78
2021/08/17 07:56:05;;;;;;;6.53;5.17;;;14.50;99.30;;;;;;5073148;28;20613;-78
2021/08/17 07:58:33;;;;;;;6.50;5.30;;;14.40;97.50;;;;;;5077632;28;20664;-78
2021/08/17 08:01:01;;;;;;;7.20;5.17;;;14.50;98.10;;;;;;5067958;28;20950;-77
2021/08/17 08:03:30;;;;;;;7.13;5.23;;;14.50;96.80;;;;;;5077361;28;20997;-77
2021/08/17 08:05:57;;;;;;;7.07;5.30;;;14.50;97.10;;;;;;5087947;28;21221;-77
2021/08/17 08:08:24;;;;;;;6.10;5.40;;;14.40;96.60;;;;;;5087477;28;20627;-76
2021/08/17 08:10:52;;;;;;;5.63;5.00;;;14.40;95.70;;;;;;5081962;28;20621;-77
2021/08/17 08:13:19;;;;;;;5.97;5.30;;;14.50;96.10;;;;;;5078921;28;20626;-77
2021/08/17 08:15:46;;;;;;;5.23;4.73;;;14.60;97.10;;;;;;5070490;28;20783;-77
2021/08/17 08:18:13;;;;;;;7.07;5.37;;;14.60;95.10;;;;;;5078704;28;21305;-77
2021/08/17 08:20:41;;;;;;;6.93;5.30;;;14.70;96.20;;;;;;5073720;28;20617;-77
2021/08/17 08:23:09;;;;;;;8.50;5.60;;;14.80;95.00;;;;;;5079382;28;20720;-77
2021/08/17 08:25:37;;;;;;;6.50;5.70;;;15.10;94.80;;;;;;5084801;28;20735;-77
2021/08/17 08:28:05;;;;;;;6.50;5.30;;;15.30;95.80;;;;;;5081879;28;20194;-77
2021/08/17 08:30:32;;;;;;;6.40;5.07;;;15.30;94.40;;;;;;5080883;28;20608;-77
2021/08/17 08:32:59;;;;;;;6.80;5.40;;;15.30;94.80;;;;;;5092483;28;20609;-77
2021/08/17 08:35:26;;;;;;;8.37;5.80;;;15.50;93.90;;;;;;5082203;28;20967;-77
2021/08/17 08:37:54;;;;;;;7.07;4.40;;;15.90;94.50;;;;;;5074489;28;20688;-77
2021/08/17 08:40:23;;;;;;;6.67;5.30;;;15.90;92.70;;;;;;5092791;28;20650;-77
2021/08/17 08:42:51;;;;;;;5.70;4.80;;;15.70;91.50;;;;;;5092858;28;20605;-77
2021/08/17 08:45:18;;;;;;;6.40;4.43;;;15.50;92.30;;;;;;5093100;28;20964;-77
2021/08/17 08:47:45;;;;;;;6.30;4.90;;;15.40;92.90;;;;;;5087827;28;20945;-77
2021/08/17 08:50:12;;;;;;;6.23;4.60;;;15.50;92.50;;;;;;5093027;28;20638;-77
2021/08/17 08:52:40;;;;;;;9.57;5.43;;;15.70;93.60;;;;;;5091464;28;20624;-77
2021/08/17 08:55:11;;;;;;;6.63;4.27;;;15.70;92.50;;;;;;5090848;28;20674;-77
2021/08/17 08:57:38;;;;;;;8.20;5.70;;;15.60;93.10;;;;;;5081323;28;20608;-78
2021/08/17 09:00:09;;;;;;;7.70;5.70;;;15.60;92.70;;;;;;5087679;28;20821;-79
2021/08/17 09:02:39;;;;;;;6.23;5.53;;;15.60;91.50;;;;;;5088778;28;20205;-78
2021/08/17 09:05:07;;;;;;;8.17;6.30;;;15.70;91.70;;;;;;5092227;28;20665;-78
2021/08/17 09:07:38;;;;;;;7.63;5.13;;;15.60;91.10;;;;;;5086012;28;20849;-78
2021/08/17 09:10:11;;;;;;;7.17;4.97;;;15.80;91.30;;;;;;5092590;28;20263;-78
2021/08/17 09:12:41;;;;;;;6.80;5.03;;;15.90;90.80;;;;;;5091570;28;20621;-78
2021/08/17 09:15:11;;;;;;;6.97;5.00;;;16.10;90.70;;;;;;5090084;28;21238;-78
2021/08/17 09:17:42;;;;;;;7.20;4.57;;;16.20;91.50;;;;;;5091960;28;20652;-78
2021/08/17 09:20:14;;;;;;;6.70;5.10;;;16.40;91.70;;;;;;5100540;28;20680;-78
2021/08/17 09:22:42;;;;;;;4.97;4.13;;;16.30;89.90;;;;;;5093318;28;20617;-78
2021/08/17 09:25:11;;;;;;;10.80;6.17;;;16.60;90.40;;;;;;5073127;28;20623;-79
2021/08/17 09:27:39;;;;;;;7.17;5.30;;;16.80;90.00;;;;;;5066124;28;20637;-78
2021/08/17 09:30:10;;;;;;;6.60;5.27;;;16.80;88.40;;;;;;5072207;28;20615;-78
2021/08/17 09:32:51;;;;;;;5.23;4.00;;;16.70;90.00;;;;;;5081419;28;20633;-78
2021/08/17 09:35:20;;;;;;;6.53;5.20;;;16.80;87.40;;;;;;5077407;28;20648;-77
2021/08/17 09:38:05;;;;;;;5.53;4.43;;;16.90;85.90;;;;;;5073898;28;21038;-78
2021/08/17 09:40:35;;;;;;;5.60;4.50;;;17.10;88.20;;;;;;5088216;28;20625;-79
2021/08/17 09:43:16;;;;;;;5.13;4.17;;;17.00;83.60;;;;;;5082019;28;20620;-78
2021/08/17 09:45:43;;;;;;;7.07;4.47;;;16.80;84.00;;;;;;5084244;28;20747;-79
2021/08/17 09:48:13;;;;;;;8.63;4.50;;;16.90;85.90;;;;;;5090587;28;20721;-77
2021/08/17 09:50:42;;;;;;;4.93;4.43;;;16.80;85.50;;;;;;5070610;28;20613;-79
2021/08/17 09:53:12;;;;;;;4.77;4.37;;;16.70;84.40;;;;;;5069972;28;20618;-77
2021/08/17 09:55:43;;;;;;;5.30;4.10;;;16.70;86.60;;;;;;5084596;28;20614;-78
2021/08/17 09:58:25;;;;;;;4.13;3.73;;;16.80;84.20;;;;;;5071715;28;20700;-78
2021/08/17 10:00:54;;;;;;;6.67;3.90;;;16.90;78.50;;;;;;5076408;28;20633;-77
2021/08/17 10:03:23;;;;;;;5.20;4.57;;;16.90;79.20;;;;;;5087178;28;20633;-78
2021/08/17 10:05:51;;;;;;;5.50;4.68;;;17.30;78.30;;;;;;5081580;28;20695;-77
2021/08/17 10:08:18;;;;;;;5.40;4.67;;;17.50;80.40;;;;;;5077970;28;20296;-78
2021/08/17 10:10:48;;;;;;;6.23;5.50;;;17.50;81.80;;;;;;5084880;28;21167;-78
2021/08/17 10:13:17;;;;;;;4.73;3.90;;;17.40;79.20;;;;;;5078820;28;20625;-78
2021/08/17 10:15:45;;;;;;;4.33;3.33;;;17.10;79.10;;;;;;5091141;28;20609;-77
2021/08/17 10:18:14;;;;;;;5.33;4.13;;;17.00;77.60;;;;;;5090786;28;20690;-77
2021/08/17 10:20:44;;;;;;;3.30;3.00;;;16.80;78.00;;;;;;5087965;28;21017;-78
2021/08/17 10:23:15;;;;;;;4.20;3.77;;;16.80;78.60;;;;;;5073013;28;21023;-78
2021/08/17 10:25:48;;;;;;;3.43;3.00;;;16.70;78.10;;;;;;5090355;28;20622;-77
2021/08/17 10:28:34;;;;;;;5.37;3.20;;;16.50;71.00;;;;;;5075651;28;21016;-79
2021/08/17 10:31:23;;;;;;;5.73;3.00;;;16.50;73.30;;;;;;5076249;28;20688;-79
2021/08/17 10:33:52;;;;;;;4.07;3.50;;;16.50;71.90;;;;;;5075762;28;21195;-79
2021/08/17 10:36:32;;;;;;;4.73;3.57;;;16.80;74.60;;;;;;5082680;28;20626;-79
2021/08/17 10:39:00;;;;;;;5.67;3.80;;;16.90;73.20;;;;;;5081613;28;20660;-79
2021/08/17 10:41:32;;;;;;;4.30;3.60;;;16.80;71.20;;;;;;5070618;28;21177;-79
2021/08/17 10:44:11;;;;;;;3.47;3.00;;;16.80;71.20;;;;;;5068978;28;20861;-79
2021/08/17 10:46:52;;;;;;;3.77;3.37;;;16.90;72.90;;;;;;5080861;28;21101;-79
2021/08/17 10:49:28;;;;;;;3.27;2.73;;;17.20;74.10;;;;;;5089409;28;20617;-78
2021/08/17 10:51:57;;;;;;;3.30;3.00;;;17.40;72.10;;;;;;5089665;28;20662;-79
2021/08/17 10:54:24;;;;;;;3.57;2.70;;;17.40;70.30;;;;;;5079283;28;20674;-79
2021/08/17 10:56:52;;;;;;;3.30;2.80;;;17.70;68.70;;;;;;5082699;28;20671;-79
2021/08/17 10:59:39;;;;;;;4.03;2.80;;;17.90;69.40;;;;;;5070281;28;20721;-79
2021/08/17 11:02:06;;;;;;;3.80;3.27;;;18.10;67.90;;;;;;5088639;28;20630;-78
2021/08/17 11:04:38;;;;;;;4.50;3.07;;;18.10;64.80;;;;;;5090541;28;20623;-79
2021/08/17 11:07:24;;;;;;;2.33;2.13;;;18.20;64.60;;;;;;5090583;28;20613;-79
2021/08/17 11:09:51;;;;;;;3.40;2.63;;;18.40;59.30;;;;;;5090199;28;21202;-79
2021/08/17 11:12:20;;;;;;;4.20;3.30;;;18.70;66.40;;;;;;5088766;28;20731;-79
2021/08/17 11:14:49;;;;;;;4.27;3.27;;;18.60;61.80;;;;;;5090490;28;20719;-79
2021/08/17 11:17:17;;;;;;;3.10;2.80;;;18.60;65.20;;;;;;5089853;28;20616;-79
2021/08/17 11:19:46;;;;;;;3.50;2.53;;;19.00;68.20;;;;;;5090344;28;20738;-79
2021/08/17 11:22:14;;;;;;;3.47;2.50;;;19.00;63.20;;;;;;5088802;28;21258;-79
2021/08/17 11:24:46;;;;;;;3.40;2.87;;;18.70;60.50;;;;;;5071976;28;20691;-79
2021/08/17 11:27:16;;;;;;;2.40;2.20;;;18.80;59.30;;;;;;5080789;28;20616;-79
2021/08/17 11:29:46;;;;;;;3.07;2.20;;;19.30;60.90;;;;;;5090146;28;20621;-79
2021/08/17 11:32:14;;;;;;;3.43;2.43;;;19.70;62.40;;;;;;5089658;28;20644;-79
2021/08/17 11:34:43;;;;;;;2.77;2.47;;;20.00;61.10;;;;;;5090333;28;20637;-79
2021/08/17 11:37:11;;;;;;;2.53;2.33;;;20.30;59.90;;;;;;5089387;28;21024;-79
2021/08/17 11:39:42;;;;;;;3.20;2.50;;;20.30;57.60;;;;;;5090024;28;21019;-79
2021/08/17 11:42:17;;;;;;;2.77;2.50;;;20.30;58.60;;;;;;5088908;28;20628;-79
2021/08/17 11:44:47;;;;;;;2.70;2.47;;;20.50;55.80;;;;;;5088416;28;20685;-78
2021/08/17 11:47:17;;;;;;;4.10;3.10;;;21.00;58.30;;;;;;5090155;28;21139;-79
2021/08/17 11:49:46;;;;;;;3.23;2.93;;;21.20;56.90;;;;;;5088038;28;20647;-79
2021/08/17 11:52:18;;;;;;;2.97;2.67;;;21.20;58.10;;;;;;5089640;28;20677;-79
2021/08/17 11:55:04;;;;;;;3.30;2.90;;;21.80;56.70;;;;;;5089715;28;20635;-79
2021/08/17 11:57:33;;;;;;;3.20;2.90;;;22.10;57.30;;;;;;5088909;28;20709;-79
2021/08/17 12:00:10;;;;;;;4.60;3.13;;;22.80;57.30;;;;;;5089771;28;20632;-79
2021/08/17 12:02:37;;;;;;;3.50;3.13;;;23.50;54.80;;;;;;5072930;28;20629;-79
2021/08/17 12:05:06;;;;;;;4.90;3.00;;;23.60;54.40;;;;;;5069690;28;20613;-80
2021/08/17 12:07:34;;;;;;;3.63;3.27;;;24.10;54.40;;;;;;5086718;28;20686;-80
2021/08/17 12:10:08;;;;;;;4.03;3.63;;;25.30;53.20;;;;;;5090290;28;20629;-79
2021/08/17 12:12:59;;;;;;;3.57;3.27;;;25.70;52.40;;;;;;5088426;28;20706;-77
2021/08/17 12:15:33;;;;;;;4.60;4.10;;;26.80;53.60;;;;;;5089308;28;20620;-77
2021/08/17 12:18:07;;;;;;;4.10;3.80;;;26.80;50.70;;;;;;5090035;28;20655;-77
2021/08/17 12:20:35;;;;;;;4.13;3.73;;;27.80;49.40;;;;;;5089551;28;20628;-78
2021/08/17 12:23:18;;;;;;;4.63;4.23;;;27.60;48.00;;;;;;5093077;28;20674;-79
2021/08/17 12:25:45;;;;;;;3.77;3.43;;;27.80;47.20;;;;;;5108597;28;20710;-79
2021/08/17 12:28:34;;;;;;;4.37;3.97;;;27.30;48.90;;;;;;5110430;28;20657;-79
2021/08/17 12:31:15;;;;;;;4.80;3.57;;;26.70;48.20;;;;;;5091710;28;20628;-79
2021/08/17 12:33:44;;;;;;;3.27;3.00;;;26.40;49.20;;;;;;5089081;28;20677;-79
2021/08/17 12:36:11;;;;;;;4.63;4.27;;;26.80;48.50;;;;;;5089673;28;20624;-79
2021/08/17 12:38:39;;;;;;;4.20;3.70;;;27.70;48.50;;;;;;5089317;28;20611;-79
2021/08/17 12:41:07;;;;;;;4.10;3.70;;;28.00;47.60;;;;;;5089648;28;20646;-79
2021/08/17 12:43:40;;;;;;;3.87;3.53;;;28.60;46.90;;;;;;5088711;28;20652;-79
2021/08/17 12:46:14;;;;;;;4.13;3.83;;;28.30;46.30;;;;;;5088450;28;20626;-79
2021/08/17 12:48:44;;;;;;;4.83;3.80;;;28.60;47.70;;;;;;5087201;28;20638;-79
2021/08/17 12:51:19;;;;;;;4.27;3.87;;;29.40;45.60;;;;;;5086339;28;20711;-80
2021/08/17 12:53:46;;;;;;;4.20;3.80;;;28.90;43.70;;;;;;5088800;28;20608;-80